Time;durP1;ratioP1;P1;durP2;ratioP2;P2;SDS_P1;SDS_P2;PMS_P1;PMS_P2;Temp;Humidity;BMP_temperature;BMP_pressure;BME280_temperature;BME280_humidity;BME280_pressure;Samples;Min_cycle;Max_cycle;Signal;HPM_P1;HPM_P2
2022/02/05 00:03:09;;;;;;;12.30;2.08;;;;;;;4.24;74.44;101644.72;5074901;28;20472;-78
2022/02/05 00:43:10;;;;;;;18.70;2.70;;;;;;;3.77;76.16;101666.38;5073685;28;20068;-78
2022/02/05 00:45:40;;;;;;;22.25;2.33;;;;;;;3.74;76.21;101679.69;5073057;28;20031;-78
2022/02/05 00:48:06;;;;;;;8.18;2.17;;;;;;;3.82;75.18;101690.69;5073492;28;20060;-79
2022/02/05 00:50:35;;;;;;;22.52;2.42;;;;;;;3.87;73.86;101687.84;5072057;28;20028;-79
2022/02/05 00:53:06;;;;;;;16.15;2.30;;;;;;;3.84;74.55;101688.84;5073252;28;20121;-79
2022/02/05 00:55:36;;;;;;;9.95;1.75;;;;;;;3.86;74.29;101701.94;5073812;28;20036;-78
2022/02/05 00:58:03;;;;;;;14.00;2.17;;;;;;;3.85;74.40;101702.84;5073064;28;20033;-80
2022/02/05 01:00:36;;;;;;;12.13;1.70;;;;;;;3.84;75.08;101698.53;5072794;28;20037;-79
2022/02/05 01:03:02;;;;;;;8.52;1.85;;;;;;;3.77;75.37;101695.31;5073239;28;20032;-78
2022/02/05 01:05:28;;;;;;;9.45;1.98;;;;;;;3.77;75.54;101703.22;5073354;28;20032;-79
2022/02/05 01:07:58;;;;;;;7.82;2.00;;;;;;;3.79;76.03;101700.50;5073070;28;20035;-79
2022/02/05 01:10:24;;;;;;;10.40;2.03;;;;;;;3.88;75.23;101705.31;5073068;28;20033;-79
2022/02/05 01:12:55;;;;;;;13.52;2.20;;;;;;;3.95;75.68;101713.78;5073040;28;20089;-80
2022/02/05 01:15:25;;;;;;;18.60;2.57;;;;;;;3.97;75.59;101709.28;5073195;28;20162;-78
2022/02/05 01:17:59;;;;;;;15.25;2.97;;;;;;;3.97;75.79;101712.81;5072690;28;20461;-80
2022/02/05 01:22:59;;;;;;;21.05;2.67;;;;;;;3.90;76.57;101721.94;5073018;28;20040;-79
2022/02/05 01:25:30;;;;;;;15.35;2.58;;;;;;;3.93;75.63;101727.03;5073144;28;20039;-80
2022/02/05 01:28:01;;;;;;;17.88;2.83;;;;;;;3.94;75.25;101723.50;5073003;28;20082;-80
2022/02/05 01:30:34;;;;;;;12.52;1.85;;;;;;;3.91;75.39;101730.66;5073054;28;20032;-79
2022/02/05 02:06:08;;;;;;;13.38;2.42;;;;;;;3.83;77.21;101788.97;5073190;28;20484;-79
2022/02/05 02:11:33;;;;;;;8.63;2.25;;;;;;;3.84;76.91;101794.16;5072624;28;20067;-79
2022/02/05 02:14:21;;;;;;;10.70;2.30;;;;;;;3.85;77.44;101792.38;5072466;28;20028;-80
2022/02/05 02:22:16;;;;;;;10.35;2.20;;;;;;;3.71;78.98;101785.97;5073194;28;20389;-79
2022/02/05 02:25:01;;;;;;;10.02;2.63;;;;;;;3.68;79.61;101790.53;5072528;28;20531;-79
2022/02/05 02:28:37;;;;;;;11.38;2.40;;;;;;;3.66;79.22;101813.44;5072728;28;20532;-79
2022/02/05 02:30:25;;;;;;;10.80;2.45;;;;;;;3.67;78.71;101801.97;5062474;28;20480;-80
2022/02/05 02:33:00;;;;;;;11.90;2.42;;;;;;;3.73;77.88;101817.47;5078349;28;20071;-80
2022/02/05 02:35:28;;;;;;;12.15;2.20;;;;;;;3.74;77.60;101808.66;5078819;28;20085;-79
2022/02/05 02:37:59;;;;;;;12.35;2.55;;;;;;;3.69;77.70;101803.63;5076106;28;20051;-79
2022/02/05 02:43:13;;;;;;;12.20;2.53;;;;;;;3.65;77.99;101802.03;5076141;28;20056;-81
2022/02/05 02:45:40;;;;;;;18.02;2.38;;;;;;;3.65;78.31;101817.84;5076039;28;20403;-79
2022/02/05 02:48:06;;;;;;;10.98;2.50;;;;;;;3.69;78.49;101805.41;5074461;28;20032;-79
2022/02/05 02:56:23;;;;;;;12.52;2.15;;;;;;;3.71;78.72;101814.06;5074274;28;20090;-79
2022/02/05 02:58:44;;;;;;;15.07;2.38;;;;;;;3.65;78.86;101833.63;5075527;28;20173;-80
2022/02/05 03:01:17;;;;;;;11.27;2.47;;;;;;;3.61;79.13;101818.91;5075575;28;20493;-79
2022/02/05 03:03:42;;;;;;;12.95;2.28;;;;;;;3.63;78.88;101837.28;5075567;28;20354;-80
2022/02/05 03:06:08;;;;;;;21.73;2.80;;;;;;;3.60;79.39;101829.50;5074127;28;20059;-79
2022/02/05 03:08:33;;;;;;;12.70;2.80;;;;;;;3.58;80.24;101840.09;5075814;28;20465;-79
2022/02/05 03:10:58;;;;;;;17.35;2.70;;;;;;;3.55;80.44;101832.34;5075461;28;20032;-79
2022/02/05 03:13:23;;;;;;;13.88;2.22;;;;;;;3.50;80.77;101836.97;5075172;28;20044;-78
2022/02/05 03:15:51;;;;;;;14.40;2.17;;;;;;;3.44;81.33;101830.19;5075097;28;20037;-79
2022/02/05 03:18:29;;;;;;;17.65;2.72;;;;;;;3.46;81.37;101835.38;5075725;28;20106;-79
2022/02/05 03:20:55;;;;;;;16.75;3.40;;;;;;;3.50;81.46;101855.38;5075570;28;20056;-79
2022/02/05 03:23:20;;;;;;;14.20;2.13;;;;;;;3.48;81.51;101846.72;5075128;28;20456;-79
2022/02/05 03:25:45;;;;;;;13.10;2.50;;;;;;;3.51;81.27;101842.16;5074951;28;20154;-79
2022/02/05 03:28:11;;;;;;;13.05;2.00;;;;;;;3.49;81.16;101848.41;5075078;28;20032;-79
2022/02/05 03:30:36;;;;;;;18.48;2.53;;;;;;;3.47;81.37;101847.63;5074852;28;20043;-79
2022/02/05 03:33:02;;;;;;;20.73;2.58;;;;;;;3.47;81.17;101852.88;5074801;28;20028;-79
2022/02/05 03:35:27;;;;;;;9.77;1.92;;;;;;;3.45;81.03;101850.34;5074786;28;20191;-79
2022/02/05 03:37:53;;;;;;;17.35;2.90;;;;;;;3.47;81.07;101850.25;5074971;28;20036;-79
2022/02/05 03:40:19;;;;;;;18.40;2.53;;;;;;;3.50;80.88;101856.22;5075075;28;20115;-79
2022/02/05 03:42:44;;;;;;;14.70;2.90;;;;;;;3.52;80.57;101861.41;5074772;28;20047;-79
2022/02/05 03:45:10;;;;;;;18.23;3.03;;;;;;;3.49;80.14;101854.53;5074802;28;20093;-79
2022/02/05 03:47:36;;;;;;;13.40;2.67;;;;;;;3.52;80.00;101861.41;5074411;28;20395;-78
2022/02/05 03:50:03;;;;;;;18.67;2.70;;;;;;;3.48;80.40;101865.97;5074524;28;20102;-79
2022/02/05 03:52:29;;;;;;;13.82;2.25;;;;;;;3.47;80.34;101864.25;5074888;28;20060;-78
2022/02/05 03:54:54;;;;;;;13.60;2.58;;;;;;;3.46;80.43;101867.84;5074604;28;20306;-79
2022/02/05 03:57:20;;;;;;;13.45;2.10;;;;;;;3.41;80.69;101867.16;5074285;28;20501;-78
2022/02/05 03:59:45;;;;;;;14.18;2.42;;;;;;;3.39;80.53;101876.03;5073012;28;20035;-80
2022/02/05 04:02:10;;;;;;;11.18;2.35;;;;;;;3.42;80.34;101874.16;5074355;28;20039;-79
2022/02/05 04:04:36;;;;;;;17.90;2.30;;;;;;;3.45;80.24;101878.41;5074036;28;20044;-79
2022/02/05 04:07:02;;;;;;;11.30;2.20;;;;;;;3.43;80.24;101875.00;5074259;28;20032;-78
2022/02/05 04:09:35;;;;;;;14.35;2.05;;;;;;;3.47;80.21;101890.56;5074156;28;20036;-78
2022/02/05 04:17:31;;;;;;;11.90;2.15;;;;;;;3.44;80.27;101890.72;5073102;28;20187;-77
2022/02/05 04:19:57;;;;;;;15.27;2.60;;;;;;;3.47;79.97;101895.84;5074042;28;20036;-78
2022/02/05 04:22:22;;;;;;;14.60;2.13;;;;;;;3.50;80.13;101898.34;5073972;28;20028;-79
2022/02/05 04:24:48;;;;;;;13.00;2.25;;;;;;;3.57;80.38;101906.81;5072325;28;20032;-77
2022/02/05 04:27:14;;;;;;;11.52;2.28;;;;;;;3.59;80.58;101891.81;5074364;28;20460;-80
2022/02/05 04:29:39;;;;;;;20.25;2.58;;;;;;;3.63;80.30;101908.34;5073930;28;20050;-78
2022/02/05 04:32:05;;;;;;;15.88;2.25;;;;;;;3.64;79.65;101923.19;5073789;28;20036;-78
2022/02/05 04:34:31;;;;;;;13.38;2.58;;;;;;;3.64;79.72;101915.28;5072014;28;20111;-78
2022/02/05 04:36:58;;;;;;;15.43;2.83;;;;;;;3.63;79.75;101910.97;5072367;28;20115;-78
2022/02/05 04:39:23;;;;;;;13.68;2.47;;;;;;;3.60;80.20;101911.97;5073664;28;20028;-78
2022/02/05 04:41:55;;;;;;;13.98;2.30;;;;;;;3.64;80.33;101904.75;5073763;28;20028;-78
2022/02/05 04:47:44;;;;;;;13.45;2.75;;;;;;;3.78;79.96;101914.69;5072012;28;20130;-78
2022/02/05 04:50:24;;;;;;;17.17;3.03;;;;;;;3.78;80.14;101931.34;5073402;28;20029;-78
2022/02/05 04:53:13;;;;;;;14.93;2.70;;;;;;;3.77;80.09;101924.34;5072661;28;20037;-76
2022/02/05 04:58:31;;;;;;;13.70;2.53;;;;;;;3.61;80.05;101926.81;5073444;28;20457;-78
2022/02/05 05:01:08;;;;;;;12.38;2.28;;;;;;;3.63;79.48;101932.88;5073457;28;20049;-78
2022/02/05 05:06:30;;;;;;;15.45;2.13;;;;;;;3.56;79.02;101920.06;5073247;28;20072;-79
2022/02/05 05:11:44;;;;;;;18.33;2.65;;;;;;;3.44;79.80;101942.50;5073217;28;20048;-78
2022/02/05 05:19:33;;;;;;;12.98;2.33;;;;;;;3.29;80.12;101930.84;5073580;28;20043;-79
2022/02/05 05:21:59;;;;;;;17.48;2.50;;;;;;;3.31;79.97;101942.16;5073211;28;20025;-78
2022/02/05 05:24:25;;;;;;;16.38;2.30;;;;;;;3.29;80.04;101944.00;5072816;28;20032;-78
2022/02/05 05:26:51;;;;;;;12.35;2.20;;;;;;;3.27;80.17;101951.97;5071729;28;20029;-78
2022/02/05 05:29:17;;;;;;;15.88;2.38;;;;;;;3.27;80.20;101948.44;5072545;28;20527;-79
2022/02/05 05:31:42;;;;;;;10.93;2.65;;;;;;;3.26;80.29;101939.72;5072619;28;20043;-79
2022/02/05 05:34:07;;;;;;;12.82;2.35;;;;;;;3.24;80.21;101945.94;5072723;28;20031;-79
2022/02/05 05:36:33;;;;;;;13.23;2.33;;;;;;;3.25;80.21;101947.66;5071407;28;20122;-78
2022/02/05 05:39:02;;;;;;;14.02;3.17;;;;;;;3.23;80.45;101952.16;5072683;28;20100;-77
2022/02/05 05:41:31;;;;;;;16.17;3.08;;;;;;;3.19;80.58;101948.78;5072774;28;20040;-80
2022/02/05 05:46:41;;;;;;;8.13;2.38;;;;;;;3.09;81.15;101945.69;5071968;28;20178;-78
2022/02/05 05:49:16;;;;;;;14.38;2.97;;;;;;;3.05;81.35;101944.09;5072904;28;20033;-77
2022/02/05 05:51:44;;;;;;;10.52;2.25;;;;;;;3.00;81.78;101946.03;5073022;28;20025;-78
2022/02/05 05:54:10;;;;;;;17.10;2.75;;;;;;;3.02;81.84;101943.38;5072751;28;20031;-78
2022/02/05 05:56:36;;;;;;;12.75;2.38;;;;;;;3.04;81.47;101945.00;5071129;28;20419;-78
2022/02/05 05:59:04;;;;;;;16.00;2.22;;;;;;;3.01;81.70;101950.41;5072313;28;20487;-78
2022/02/05 06:01:29;;;;;;;17.73;2.17;;;;;;;3.02;81.75;101949.50;5072601;28;20033;-78
2022/02/05 06:03:54;;;;;;;14.90;2.63;;;;;;;3.00;82.26;101954.81;5074480;28;20052;-79
2022/02/05 06:06:20;;;;;;;11.25;2.28;;;;;;;3.02;82.55;101952.13;5076772;28;20067;-78
2022/02/05 06:08:45;;;;;;;17.63;2.90;;;;;;;3.00;82.32;101954.81;5075586;28;20131;-78
2022/02/05 06:11:10;;;;;;;14.95;3.03;;;;;;;3.00;83.44;101956.56;5074948;28;20068;-77
2022/02/05 06:13:36;;;;;;;17.73;2.47;;;;;;;3.08;83.17;101956.28;5075827;28;20060;-77
2022/02/05 06:16:06;;;;;;;15.35;2.20;;;;;;;3.07;83.31;101959.81;5076585;28;20032;-79
2022/02/05 06:18:31;;;;;;;14.50;2.10;;;;;;;3.14;82.40;101967.38;5074850;28;20052;-78
2022/02/05 06:20:57;;;;;;;14.73;2.63;;;;;;;3.15;82.51;101962.97;5076324;28;20098;-77
2022/02/05 06:23:22;;;;;;;20.20;2.50;;;;;;;3.17;82.76;101966.41;5076003;28;20043;-77
2022/02/05 06:25:48;;;;;;;14.75;2.33;;;;;;;3.22;82.24;101947.81;5075773;28;20103;-78
2022/02/05 06:28:18;;;;;;;18.98;2.90;;;;;;;3.29;81.81;101960.63;5076367;28;20032;-79
2022/02/05 06:30:44;;;;;;;16.52;2.45;;;;;;;3.40;80.90;101965.44;5075875;28;20533;-78
2022/02/05 06:33:10;;;;;;;15.40;2.40;;;;;;;3.40;80.88;101965.44;5075737;28;20040;-78
2022/02/05 06:35:35;;;;;;;19.30;2.58;;;;;;;3.40;80.62;101962.78;5076294;28;20095;-79
2022/02/05 06:38:01;;;;;;;16.70;2.65;;;;;;;3.42;80.87;101960.97;5075816;28;20036;-78
2022/02/05 06:40:27;;;;;;;15.93;2.85;;;;;;;3.43;81.16;101969.72;5075540;28;20033;-78
2022/02/05 06:42:52;;;;;;;18.20;2.47;;;;;;;3.37;81.23;101969.97;5075662;28;20029;-78
2022/02/05 06:45:20;;;;;;;12.10;2.30;;;;;;;3.33;81.58;101974.53;5075913;28;20036;-78
2022/02/05 06:47:46;;;;;;;8.93;2.00;;;;;;;3.35;81.54;101983.19;5075612;28;20029;-79
2022/02/05 06:50:12;;;;;;;15.85;2.72;;;;;;;3.40;81.09;101983.00;5075694;28;20500;-78
2022/02/05 06:52:38;;;;;;;22.52;2.97;;;;;;;3.43;80.72;101980.25;5076299;28;20086;-78
2022/02/05 06:55:04;;;;;;;9.60;2.10;;;;;;;3.39;80.77;101984.78;5076550;28;20029;-78
2022/02/05 06:57:30;;;;;;;12.13;2.60;;;;;;;3.32;81.40;101981.53;5075469;28;20074;-79
2022/02/05 06:59:55;;;;;;;10.63;2.30;;;;;;;3.31;81.57;101986.88;5075083;28;20041;-78
2022/02/05 07:02:21;;;;;;;14.05;2.97;;;;;;;3.32;81.71;101986.81;5075380;28;20469;-78
2022/02/05 07:04:47;;;;;;;17.77;2.70;;;;;;;3.27;81.56;101996.69;5075389;28;20044;-79
2022/02/05 07:07:13;;;;;;;14.48;2.40;;;;;;;3.22;82.10;101995.16;5075211;28;20530;-78
2022/02/05 07:09:39;;;;;;;14.23;2.97;;;;;;;3.22;82.28;101995.16;5074930;28;20071;-77
2022/02/05 07:12:06;;;;;;;17.35;2.92;;;;;;;3.23;81.74;101999.50;5073865;28;20028;-77
2022/02/05 07:14:40;;;;;;;13.43;2.22;;;;;;;3.19;82.17;101996.13;5074500;28;20048;-78
2022/02/05 07:17:17;;;;;;;8.88;2.30;;;;;;;3.14;82.38;102000.72;5075067;28;21174;-77
2022/02/05 07:19:56;;;;;;;25.80;3.00;;;;;;;3.14;83.24;102006.00;5075282;28;20387;-78
2022/02/05 07:22:23;;;;;;;13.95;2.53;;;;;;;3.11;83.33;102006.13;5075055;28;20380;-77
2022/02/05 07:30:00;;;;;;;12.55;2.50;;;;;;;3.03;84.41;102022.22;5074132;28;20050;-79
2022/02/05 07:32:25;;;;;;;15.73;2.65;;;;;;;2.99;84.71;102017.97;5074765;28;20044;-80
2022/02/05 07:34:51;;;;;;;20.50;3.08;;;;;;;2.99;85.02;102020.63;5074913;28;20036;-79
2022/02/05 07:37:17;;;;;;;9.00;2.60;;;;;;;2.97;84.96;102025.06;5073711;28;20487;-79
2022/02/05 07:39:46;;;;;;;12.25;2.33;;;;;;;2.94;85.43;102033.94;5074536;28;20452;-78
2022/02/05 07:42:14;;;;;;;16.15;2.72;;;;;;;2.89;85.62;102045.56;5074356;28;20428;-77
2022/02/05 07:44:39;;;;;;;23.83;2.67;;;;;;;2.89;85.73;102043.75;5074276;28;20476;-78
2022/02/05 07:47:05;;;;;;;12.52;2.15;;;;;;;2.94;85.38;102040.97;5074757;28;20039;-77
2022/02/05 07:49:37;;;;;;;12.80;2.92;;;;;;;3.02;85.21;102035.41;5075106;28;20420;-78
2022/02/05 07:52:04;;;;;;;9.73;2.00;;;;;;;3.05;85.05;102030.88;5075147;28;20029;-77
2022/02/05 07:54:29;;;;;;;12.98;2.13;;;;;;;3.06;85.33;102032.59;5074661;28;20124;-77
2022/02/05 07:56:55;;;;;;;13.57;2.28;;;;;;;3.11;85.05;102035.91;5073249;28;20099;-75
2022/02/05 07:59:21;;;;;;;12.75;2.65;;;;;;;3.15;84.89;102026.97;5074481;28;20040;-76
2022/02/05 08:01:46;;;;;;;13.13;2.53;;;;;;;3.21;84.83;102027.63;5074274;28;20074;-75
2022/02/05 08:04:12;;;;;;;19.67;2.97;;;;;;;3.26;84.08;102025.69;5072811;28;20029;-75
2022/02/05 08:06:38;;;;;;;16.05;2.90;;;;;;;3.32;84.13;102028.06;5074695;28;20384;-78
2022/02/05 08:09:12;;;;;;;17.88;2.45;;;;;;;3.40;83.40;102028.56;5074312;28;20024;-77
2022/02/05 08:11:42;;;;;;;14.02;2.35;;;;;;;3.53;82.55;102039.47;5074463;28;20043;-78
2022/02/05 08:14:10;;;;;;;8.65;2.22;;;;;;;3.69;81.88;102032.63;5074215;28;20055;-76
2022/02/05 08:19:08;;;;;;;14.32;2.05;;;;;;;3.84;80.56;102019.75;5073451;28;20059;-77
2022/02/05 08:21:34;;;;;;;10.85;1.92;;;;;;;3.89;80.34;102018.59;5073820;28;20039;-77
2022/02/05 08:23:59;;;;;;;18.05;2.30;;;;;;;3.96;79.42;102015.72;5072258;28;20032;-76
2022/02/05 08:26:28;;;;;;;15.27;2.13;;;;;;;3.99;79.00;102015.59;5072912;28;20111;-77
2022/02/05 08:28:54;;;;;;;7.80;2.10;;;;;;;3.99;78.68;102019.06;5056499;28;20036;-77
2022/02/05 08:31:21;;;;;;;13.85;2.88;;;;;;;4.01;79.00;102027.75;5073930;28;20034;-76
2022/02/05 08:33:46;;;;;;;14.77;3.17;;;;;;;4.05;79.05;102042.50;5073588;28;20086;-77
2022/02/05 08:36:12;;;;;;;18.48;3.00;;;;;;;4.13;79.25;102044.78;5073641;28;20381;-78
2022/02/05 08:38:38;;;;;;;14.82;2.22;;;;;;;4.23;78.93;102047.88;5073467;28;20039;-77
2022/02/05 08:41:03;;;;;;;14.27;2.63;;;;;;;4.28;79.08;102059.06;5073304;28;20032;-76
2022/02/05 08:43:30;;;;;;;22.23;2.50;;;;;;;4.29;78.81;102073.09;5073533;28;20028;-77
2022/02/05 08:45:57;;;;;;;20.38;2.35;;;;;;;4.34;78.33;102063.19;5073380;28;20040;-77
2022/02/05 08:48:22;;;;;;;13.27;2.30;;;;;;;4.41;78.44;102067.28;5073707;28;20032;-77
2022/02/05 08:50:48;;;;;;;11.82;2.47;;;;;;;4.48;77.59;102071.34;5073408;28;20064;-76
2022/02/05 08:53:19;;;;;;;14.90;2.60;;;;;;;4.59;77.51;102069.06;5073428;28;20044;-76
2022/02/05 08:55:44;;;;;;;15.40;2.83;;;;;;;4.71;76.91;102083.47;5073418;28;20113;-78
2022/02/05 08:58:10;;;;;;;12.52;2.42;;;;;;;4.80;76.97;102091.91;5073080;28;20116;-77
2022/02/05 09:00:44;;;;;;;10.45;2.17;;;;;;;4.80;75.22;102081.34;5073048;28;20362;-77
2022/02/05 09:03:13;;;;;;;13.93;2.60;;;;;;;4.72;75.57;102089.63;5073631;28;20033;-73
2022/02/05 09:05:46;;;;;;;12.00;2.20;;;;;;;4.79;75.40;102088.38;5072802;28;20473;-77
2022/02/05 09:08:50;;;;;;;12.55;2.40;;;;;;;4.88;75.37;102090.63;5073113;28;20032;-77
2022/02/05 09:11:56;;;;;;;15.10;1.77;;;;;;;4.91;74.46;102074.66;5069804;28;20083;-77
2022/02/05 09:16:24;;;;;;;9.30;2.08;;;;;;;4.92;74.41;102080.78;5072927;28;20051;-79
2022/02/05 09:18:49;;;;;;;22.25;2.95;;;;;;;5.07;74.25;102080.03;5073431;28;20057;-77
2022/02/05 09:21:16;;;;;;;13.05;2.75;;;;;;;5.17;73.55;102088.38;5072867;28;20032;-77
2022/02/05 09:23:45;;;;;;;16.55;3.45;;;;;;;5.23;73.67;102080.16;5072787;28;20039;-78
2022/02/05 09:26:12;;;;;;;12.35;2.03;;;;;;;5.25;73.68;102082.72;5072767;28;20036;-77
2022/02/05 09:28:40;;;;;;;16.25;3.20;;;;;;;5.32;73.03;102076.22;5072825;28;20040;-77
2022/02/05 09:33:32;;;;;;;12.68;2.92;;;;;;;5.42;73.17;102072.22;5072757;28;20063;-76
2022/02/05 09:35:57;;;;;;;9.07;2.00;;;;;;;5.54;72.49;102070.75;5072338;28;20062;-79
2022/02/05 09:38:23;;;;;;;13.00;2.33;;;;;;;5.57;72.49;102057.41;5072153;28;20032;-82
2022/02/05 09:40:48;;;;;;;15.23;2.65;;;;;;;5.62;73.19;102057.16;5071326;28;20060;-77
2022/02/05 09:43:14;;;;;;;17.45;2.75;;;;;;;5.77;73.32;102059.03;5072662;28;20044;-74
2022/02/05 09:45:39;;;;;;;21.20;3.13;;;;;;;5.93;73.00;102066.19;5072431;28;20033;-77
2022/02/05 09:48:06;;;;;;;14.38;2.42;;;;;;;6.09;71.47;102066.25;5072680;28;20035;-78
2022/02/05 09:50:32;;;;;;;20.42;2.70;;;;;;;6.39;71.86;102071.72;5072131;28;20028;-79
2022/02/05 09:53:04;;;;;;;17.38;2.85;;;;;;;6.56;70.04;102070.81;5072501;28;20028;-78
2022/02/05 09:55:29;;;;;;;10.73;2.25;;;;;;;6.66;68.67;102064.09;5072482;28;20036;-77
2022/02/05 09:57:55;;;;;;;17.75;2.90;;;;;;;6.73;68.63;102074.34;5072540;28;20040;-77
2022/02/05 10:00:21;;;;;;;16.02;2.97;;;;;;;6.91;68.58;102060.06;5072492;28;20119;-76
2022/02/05 10:02:56;;;;;;;11.30;2.55;;;;;;;7.10;67.80;102072.31;5071198;28;20460;-78
2022/02/05 10:05:29;;;;;;;10.43;2.65;;;;;;;7.47;66.41;102064.91;5071195;28;20039;-75
2022/02/05 10:07:54;;;;;;;19.10;2.40;;;;;;;7.57;65.84;102084.63;5072684;28;20497;-74
2022/02/05 10:10:21;;;;;;;14.15;3.28;;;;;;;7.72;65.57;102062.53;5072267;28;20037;-74
2022/02/05 10:13:09;;;;;;;15.45;4.47;;;;;;;7.87;64.84;102057.28;5054393;28;20036;-75
2022/02/05 10:15:36;;;;;;;19.20;5.10;;;;;;;8.18;64.65;102060.69;5072360;28;20047;-76
2022/02/05 10:18:03;;;;;;;10.90;3.08;;;;;;;8.57;62.99;102051.25;5072053;28;20182;-76
2022/02/05 10:20:30;;;;;;;18.00;2.90;;;;;;;8.70;62.13;102046.88;5072185;28;20040;-76
2022/02/05 10:22:57;;;;;;;19.98;3.35;;;;;;;8.76;60.88;102062.44;5072454;28;20060;-78
2022/02/05 10:25:28;;;;;;;19.30;3.33;;;;;;;8.91;61.06;102055.28;5070893;28;20037;-76
2022/02/05 10:27:54;;;;;;;13.55;2.75;;;;;;;9.03;59.07;102055.44;5072191;28;20024;-75
2022/02/05 10:30:25;;;;;;;13.68;2.53;;;;;;;9.12;58.29;102054.84;5072283;28;20028;-78
2022/02/05 10:33:19;;;;;;;14.05;2.60;;;;;;;8.41;59.93;102067.25;5072636;28;20032;-74
2022/02/05 10:43:56;;;;;;;13.88;2.50;;;;;;;8.89;59.01;102046.56;5072629;28;20438;-75
2022/02/05 10:46:32;;;;;;;16.90;2.63;;;;;;;8.77;60.43;102048.19;5071787;28;20033;-77
2022/02/05 10:48:58;;;;;;;17.75;2.55;;;;;;;8.99;59.24;102038.88;5072058;28;20036;-78
2022/02/05 10:51:43;;;;;;;15.07;2.58;;;;;;;9.14;58.44;102053.78;5075157;28;20035;-76
2022/02/05 10:54:16;;;;;;;8.38;2.58;;;;;;;9.47;56.84;102041.06;5075450;28;20048;-75
2022/02/05 10:57:10;;;;;;;18.17;3.13;;;;;;;10.17;56.19;102037.19;5075267;28;20039;-77
2022/02/05 11:05:11;;;;;;;11.90;3.22;;;;;;;10.55;53.53;102046.97;5059127;28;20028;-78
2022/02/05 11:05:51;;;;;;;19.02;3.13;;;;;;;9.63;55.96;102046.16;5075056;28;20106;-78
2022/02/05 11:08:21;;;;;;;14.90;2.70;;;;;;;9.26;57.68;102056.59;5075468;28;20033;-76
2022/02/05 11:21:10;;;;;;;14.45;2.55;;;;;;;8.44;58.75;102037.91;5075176;28;20054;-76
2022/02/05 11:23:37;;;;;;;17.23;2.83;;;;;;;8.00;60.91;102033.50;5074601;28;20121;-76
2022/02/05 11:26:05;;;;;;;12.20;2.75;;;;;;;7.87;62.63;102031.63;5075231;28;20033;-78
2022/02/05 11:28:43;;;;;;;18.27;3.25;;;;;;;8.01;62.63;102019.31;5074729;28;20028;-78
2022/02/05 11:31:33;;;;;;;19.50;3.47;;;;;;;7.97;63.59;102023.09;5075108;28;20050;-77
2022/02/05 11:34:29;;;;;;;11.07;2.53;;;;;;;8.00;63.17;102013.19;5074716;28;20037;-78
2022/02/05 11:37:06;;;;;;;17.33;3.40;;;;;;;7.94;63.38;102017.06;5073719;28;20060;-77
2022/02/05 11:39:53;;;;;;;13.65;2.33;;;;;;;7.90;62.47;102022.63;5074231;28;20041;-77
2022/02/05 11:42:35;;;;;;;16.98;2.97;;;;;;;7.81;61.42;102020.50;5074807;28;20038;-76
2022/02/05 11:45:20;;;;;;;;;;;;;;;7.59;63.87;102009.41;5074967;28;20025;-78
2022/02/05 11:47:46;;;;;;;18.65;2.42;;;;;;;7.66;63.12;102006.38;5061580;28;20368;-79
2022/02/05 11:50:16;;;;;;;20.80;2.80;;;;;;;7.59;63.54;102006.75;5074343;28;20029;-77
2022/02/05 11:52:43;;;;;;;12.85;2.03;;;;;;;7.53;63.39;102007.13;5074583;28;20032;-78
2022/02/05 11:55:27;;;;;;;12.82;2.25;;;;;;;7.29;64.38;102005.94;5074273;28;20488;-76
2022/02/05 11:58:05;;;;;;;18.77;3.97;;;;;;;7.09;64.84;101994.69;5073011;28;20524;-75
2022/02/05 12:00:36;;;;;;;17.30;2.50;;;;;;;7.13;64.89;101987.44;5074580;28;20025;-77
2022/02/05 12:03:31;;;;;;;20.35;4.70;;;;;;;7.26;66.20;101985.78;5072876;28;20406;-76
2022/02/05 12:06:01;;;;;;;13.07;2.67;;;;;;;7.29;65.51;101974.16;5073788;28;20016;-75
2022/02/05 12:08:34;;;;;;;16.48;2.88;;;;;;;7.64;66.20;101980.00;5073317;28;20369;-75
2022/02/05 12:11:03;;;;;;;16.95;3.20;;;;;;;7.99;64.88;101970.88;5074221;28;20445;-75
2022/02/05 12:13:39;;;;;;;16.23;2.40;;;;;;;8.07;64.69;101977.38;5073854;28;20029;-75
2022/02/05 12:16:06;;;;;;;18.35;3.33;;;;;;;8.36;62.86;101972.06;5073748;28;20033;-74
2022/02/05 12:18:51;;;;;;;15.98;3.03;;;;;;;8.24;62.49;101970.16;5073342;28;20048;-74
2022/02/05 12:21:26;;;;;;;19.63;3.05;;;;;;;7.87;64.06;101957.41;5073509;28;20056;-77
2022/02/05 12:24:21;;;;;;;11.63;2.67;;;;;;;7.73;64.55;101973.28;5073769;28;20091;-75
2022/02/05 12:26:45;;;;;;;17.25;2.83;;;;;;;8.03;64.21;101961.75;5073463;28;20060;-75
2022/02/05 12:29:24;;;;;;;10.27;1.83;;;;;;;8.08;63.99;101957.88;5074155;28;20029;-74
2022/02/05 12:31:51;;;;;;;20.60;2.90;;;;;;;8.29;63.80;101949.53;5078333;28;20041;-74
2022/02/05 12:34:16;;;;;;;22.98;2.47;;;;;;;8.37;63.68;101955.19;5073481;28;20024;-76
2022/02/05 12:36:46;;;;;;;13.98;2.78;;;;;;;8.50;63.98;101947.34;5072977;28;20036;-74
2022/02/05 12:39:27;;;;;;;16.13;2.28;;;;;;;8.77;62.69;101954.47;5073756;28;20059;-76
2022/02/05 12:41:55;;;;;;;15.48;2.47;;;;;;;9.14;60.69;101950.22;5073417;28;20043;-75
2022/02/05 12:44:24;;;;;;;11.52;2.50;;;;;;;9.36;61.10;101943.50;5073177;28;20174;-74
2022/02/05 12:46:55;;;;;;;12.20;2.38;;;;;;;9.63;58.83;101959.34;5073558;28;20029;-75
2022/02/05 12:49:26;;;;;;;18.27;3.35;;;;;;;9.65;59.13;101941.47;5073010;28;20057;-76
2022/02/05 12:51:53;;;;;;;15.85;3.38;;;;;;;9.70;58.92;101938.50;5073738;28;20425;-73
2022/02/05 12:54:24;;;;;;;13.00;2.78;;;;;;;9.82;58.62;101940.31;5073685;28;20068;-73
2022/02/05 12:56:50;;;;;;;19.55;3.45;;;;;;;10.32;56.80;101943.00;5073264;28;20479;-80
2022/02/05 12:59:27;;;;;;;14.57;3.10;;;;;;;9.70;57.09;101927.88;5072980;28;20495;-75
2022/02/05 13:02:05;;;;;;;11.65;2.25;;;;;;;9.71;58.79;101930.41;5072976;28;20078;-75
2022/02/05 13:04:35;;;;;;;14.57;2.67;;;;;;;10.42;57.79;101940.56;5073035;28;20036;-74
2022/02/05 13:07:01;;;;;;;12.90;2.70;;;;;;;11.26;53.57;101914.78;5072774;28;20465;-76
2022/02/05 13:09:28;;;;;;;12.60;2.10;;;;;;;11.33;53.42;101907.19;5073274;28;20111;-75
2022/02/05 13:12:03;;;;;;;18.73;2.38;;;;;;;11.76;52.27;101901.19;5072390;28;20033;-75
2022/02/05 13:14:52;;;;;;;13.93;3.00;;;;;;;11.27;52.48;101902.31;5072778;28;20465;-73
2022/02/05 13:26:04;;;;;;;15.50;2.30;;;;;;;10.99;52.23;101884.91;5072608;28;20478;-72
2022/02/05 13:34:24;;;;;;;13.82;2.65;;;;;;;11.63;52.86;101879.97;5072748;28;20435;-74
2022/02/05 13:37:10;;;;;;;12.07;2.72;;;;;;;12.09;52.18;101869.28;5072617;28;20033;-75
2022/02/05 13:39:58;;;;;;;10.98;3.45;;;;;;;11.12;53.71;101877.69;5072826;28;20029;-74
2022/02/05 13:42:29;;;;;;;11.02;2.25;;;;;;;9.93;56.19;101869.56;5073129;28;20032;-73
2022/02/05 13:45:09;;;;;;;15.60;2.90;;;;;;;9.50;58.46;101866.34;5072526;28;20036;-77
2022/02/05 13:47:48;;;;;;;13.30;2.95;;;;;;;9.28;59.18;101869.63;5072408;28;20032;-76
2022/02/05 13:50:14;;;;;;;12.88;2.42;;;;;;;9.27;59.57;101857.31;5072440;28;20035;-76
2022/02/05 13:52:48;;;;;;;13.23;2.80;;;;;;;9.14;60.64;101861.78;5072833;28;20035;-76
2022/02/05 13:55:21;;;;;;;18.67;3.38;;;;;;;8.67;62.88;101842.78;5072534;28;20028;-75
2022/02/05 13:58:14;;;;;;;15.02;4.18;;;;;;;8.38;64.62;101845.53;5072320;28;20029;-76
2022/02/05 14:00:43;;;;;;;18.33;3.40;;;;;;;8.23;65.67;101854.47;5072652;28;20107;-76
2022/02/05 14:03:09;;;;;;;18.67;3.95;;;;;;;8.36;65.39;101847.44;5072212;28;20032;-75
2022/02/05 14:05:36;;;;;;;17.55;3.15;;;;;;;8.17;65.30;101834.50;5072256;28;20021;-75
2022/02/05 14:08:03;;;;;;;20.63;3.25;;;;;;;7.89;66.24;101851.31;5072423;28;20033;-74
2022/02/05 14:10:29;;;;;;;13.77;2.70;;;;;;;7.64;67.54;101826.34;5070959;28;20039;-75
2022/02/05 14:12:56;;;;;;;17.30;2.95;;;;;;;7.54;67.62;101833.19;5072124;28;20028;-79
2022/02/05 14:15:25;;;;;;;25.15;4.00;;;;;;;7.52;68.41;101838.56;5072617;28;20029;-77
2022/02/05 14:18:12;;;;;;;14.77;3.20;;;;;;;7.68;67.74;101832.34;5071969;28;20103;-78
2022/02/05 14:20:54;;;;;;;15.77;2.75;;;;;;;7.62;67.81;101838.84;5072823;28;20047;-76
2022/02/05 14:23:22;;;;;;;22.02;3.38;;;;;;;7.47;68.83;101843.31;5072196;28;20098;-77
2022/02/05 14:26:02;;;;;;;18.10;2.60;;;;;;;7.42;68.57;101845.41;5074932;28;20032;-79